sensor_id;sensor_type;location;lat;lon;timestamp;pressure;altitude;pressure_sealevel;temperature;humidity
68941;BME280;55982;51.476;7.552;2023-07-09T00:00:00;99951.31;;;24.94;98.28
68941;BME280;55982;51.476;7.552;2023-07-09T00:02:27;99945.41;;;24.90;98.27
68941;BME280;55982;51.476;7.552;2023-07-09T00:04:52;99949.34;;;24.86;98.57
68941;BME280;55982;51.476;7.552;2023-07-09T00:07:30;99944.84;;;24.96;96.35
68941;BME280;55982;51.476;7.552;2023-07-09T00:09:56;99945.97;;;24.94;96.41
68941;BME280;55982;51.476;7.552;2023-07-09T00:12:22;99947.81;;;24.93;96.37
68941;BME280;55982;51.476;7.552;2023-07-09T00:14:47;99947.94;;;24.92;95.99
68941;BME280;55982;51.476;7.552;2023-07-09T00:17:25;99947.38;;;24.88;96.23
68941;BME280;55982;51.476;7.552;2023-07-09T00:19:51;99947.13;;;24.91;96.21
68941;BME280;55982;51.476;7.552;2023-07-09T00:22:17;99948.78;;;24.92;95.96
68941;BME280;55982;51.476;7.552;2023-07-09T00:24:47;99945.16;;;24.93;95.27
68941;BME280;55982;51.476;7.552;2023-07-09T00:27:14;99947.38;;;24.88;96.50
68941;BME280;55982;51.476;7.552;2023-07-09T00:29:42;99955.00;;;24.83;97.02
68941;BME280;55982;51.476;7.552;2023-07-09T00:32:18;99946.50;;;24.78;97.56
68941;BME280;55982;51.476;7.552;2023-07-09T00:34:49;99944.41;;;24.72;98.29
68941;BME280;55982;51.476;7.552;2023-07-09T00:37:20;99949.00;;;24.70;98.49
68941;BME280;55982;51.476;7.552;2023-07-09T00:39:47;99950.25;;;24.66;99.02
68941;BME280;55982;51.476;7.552;2023-07-09T00:42:16;99942.34;;;24.55;100.00
68941;BME280;55982;51.476;7.552;2023-07-09T00:44:48;99938.50;;;24.48;100.00
68941;BME280;55982;51.476;7.552;2023-07-09T00:47:41;99941.56;;;24.34;100.00
68941;BME280;55982;51.476;7.552;2023-07-09T00:50:13;99943.22;;;24.25;100.00
68941;BME280;55982;51.476;7.552;2023-07-09T00:52:50;99945.69;;;24.17;100.00
68941;BME280;55982;51.476;7.552;2023-07-09T00:55:22;99942.03;;;24.09;100.00
68941;BME280;55982;51.476;7.552;2023-07-09T00:57:51;99937.41;;;24.00;100.00
68941;BME280;55982;51.476;7.552;2023-07-09T01:00:24;99942.94;;;23.78;100.00
68941;BME280;55982;51.476;7.552;2023-07-09T01:02:50;99939.84;;;23.61;100.00
68941;BME280;55982;51.476;7.552;2023-07-09T01:05:16;99942.47;;;23.52;100.00
68941;BME280;55982;51.476;7.552;2023-07-09T01:07:44;99948.59;;;23.43;100.00
68941;BME280;55982;51.476;7.552;2023-07-09T01:10:15;99945.31;;;23.28;100.00
68941;BME280;55982;51.476;7.552;2023-07-09T01:12:41;99942.66;;;23.39;100.00
68941;BME280;55982;51.476;7.552;2023-07-09T01:15:07;99938.81;;;23.21;100.00
68941;BME280;55982;51.476;7.552;2023-07-09T01:17:33;99943.47;;;23.08;100.00
68941;BME280;55982;51.476;7.552;2023-07-09T01:19:59;99950.25;;;23.12;100.00
68941;BME280;55982;51.476;7.552;2023-07-09T01:22:25;99947.72;;;23.11;100.00
68941;BME280;55982;51.476;7.552;2023-07-09T01:25:02;99949.66;;;23.09;100.00
68941;BME280;55982;51.476;7.552;2023-07-09T01:27:34;99945.59;;;22.94;100.00
68941;BME280;55982;51.476;7.552;2023-07-09T01:30:02;99951.56;;;22.75;100.00
68941;BME280;55982;51.476;7.552;2023-07-09T01:32:28;99939.78;;;22.55;100.00
68941;BME280;55982;51.476;7.552;2023-07-09T01:34:58;99939.47;;;22.38;100.00
68941;BME280;55982;51.476;7.552;2023-07-09T01:37:27;99945.16;;;22.33;100.00
68941;BME280;55982;51.476;7.552;2023-07-09T01:39:53;99952.06;;;22.25;100.00
68941;BME280;55982;51.476;7.552;2023-07-09T01:42:21;99950.50;;;22.33;100.00
68941;BME280;55982;51.476;7.552;2023-07-09T01:44:48;99950.84;;;22.51;100.00
68941;BME280;55982;51.476;7.552;2023-07-09T01:47:15;99956.91;;;22.53;100.00
68941;BME280;55982;51.476;7.552;2023-07-09T01:49:40;99952.81;;;22.60;100.00
68941;BME280;55982;51.476;7.552;2023-07-09T01:52:06;99953.28;;;22.76;100.00
68941;BME280;55982;51.476;7.552;2023-07-09T01:54:35;99950.31;;;22.90;100.00
68941;BME280;55982;51.476;7.552;2023-07-09T01:57:16;99950.31;;;23.01;100.00
68941;BME280;55982;51.476;7.552;2023-07-09T01:59:42;99946.59;;;23.13;100.00
68941;BME280;55982;51.476;7.552;2023-07-09T02:02:09;99947.88;;;22.98;100.00
68941;BME280;55982;51.476;7.552;2023-07-09T02:04:34;99948.28;;;22.71;100.00
68941;BME280;55982;51.476;7.552;2023-07-09T02:07:00;99943.94;;;22.48;100.00
68941;BME280;55982;51.476;7.552;2023-07-09T02:09:25;99947.22;;;22.19;100.00
68941;BME280;55982;51.476;7.552;2023-07-09T02:11:50;99943.59;;;21.98;100.00
68941;BME280;55982;51.476;7.552;2023-07-09T02:14:16;99942.13;;;21.94;100.00
68941;BME280;55982;51.476;7.552;2023-07-09T02:16:41;99945.25;;;21.99;100.00
68941;BME280;55982;51.476;7.552;2023-07-09T02:19:07;99943.06;;;22.04;100.00
68941;BME280;55982;51.476;7.552;2023-07-09T02:21:32;99931.94;;;21.88;100.00
68941;BME280;55982;51.476;7.552;2023-07-09T02:23:57;99936.53;;;21.97;100.00
68941;BME280;55982;51.476;7.552;2023-07-09T02:26:23;99946.97;;;22.22;100.00
68941;BME280;55982;51.476;7.552;2023-07-09T02:28:48;99943.13;;;22.59;100.00
68941;BME280;55982;51.476;7.552;2023-07-09T02:31:14;99943.09;;;22.70;100.00
68941;BME280;55982;51.476;7.552;2023-07-09T02:33:40;99948.03;;;23.17;100.00
68941;BME280;55982;51.476;7.552;2023-07-09T02:36:06;99948.97;;;23.27;100.00
68941;BME280;55982;51.476;7.552;2023-07-09T02:38:31;99944.34;;;23.40;100.00
68941;BME280;55982;51.476;7.552;2023-07-09T02:40:56;99953.34;;;23.39;100.00
68941;BME280;55982;51.476;7.552;2023-07-09T02:43:22;99943.38;;;23.41;100.00
68941;BME280;55982;51.476;7.552;2023-07-09T02:45:47;99960.13;;;23.43;100.00
68941;BME280;55982;51.476;7.552;2023-07-09T02:48:13;99951.66;;;23.59;100.00
68941;BME280;55982;51.476;7.552;2023-07-09T02:50:38;99955.38;;;23.47;100.00
68941;BME280;55982;51.476;7.552;2023-07-09T02:53:03;99954.84;;;23.53;100.00
68941;BME280;55982;51.476;7.552;2023-07-09T02:55:29;99954.38;;;23.48;100.00
68941;BME280;55982;51.476;7.552;2023-07-09T02:57:55;99950.94;;;23.57;100.00
68941;BME280;55982;51.476;7.552;2023-07-09T03:00:20;99951.78;;;23.57;100.00
68941;BME280;55982;51.476;7.552;2023-07-09T03:02:45;99954.94;;;23.51;100.00
68941;BME280;55982;51.476;7.552;2023-07-09T03:05:11;99953.56;;;23.36;100.00
68941;BME280;55982;51.476;7.552;2023-07-09T03:07:36;99962.81;;;23.32;100.00
68941;BME280;55982;51.476;7.552;2023-07-09T03:10:01;99956.84;;;23.29;100.00
68941;BME280;55982;51.476;7.552;2023-07-09T03:12:27;99966.69;;;23.28;100.00
68941;BME280;55982;51.476;7.552;2023-07-09T03:14:52;99961.13;;;23.31;100.00
68941;BME280;55982;51.476;7.552;2023-07-09T03:17:17;99972.66;;;23.32;100.00
68941;BME280;55982;51.476;7.552;2023-07-09T03:19:43;99974.22;;;23.23;100.00
68941;BME280;55982;51.476;7.552;2023-07-09T03:22:08;99973.78;;;23.18;100.00
68941;BME280;55982;51.476;7.552;2023-07-09T03:24:33;99973.16;;;23.26;100.00
68941;BME280;55982;51.476;7.552;2023-07-09T03:26:59;99976.66;;;23.26;100.00
68941;BME280;55982;51.476;7.552;2023-07-09T03:29:24;99976.88;;;23.34;100.00
68941;BME280;55982;51.476;7.552;2023-07-09T03:31:49;99986.84;;;23.32;100.00
68941;BME280;55982;51.476;7.552;2023-07-09T03:34:15;99990.38;;;23.33;100.00
68941;BME280;55982;51.476;7.552;2023-07-09T03:36:41;99985.91;;;23.22;100.00
68941;BME280;55982;51.476;7.552;2023-07-09T03:39:07;99993.81;;;23.13;100.00
68941;BME280;55982;51.476;7.552;2023-07-09T03:41:33;99984.00;;;23.02;100.00
68941;BME280;55982;51.476;7.552;2023-07-09T03:43:59;99993.19;;;23.09;100.00
68941;BME280;55982;51.476;7.552;2023-07-09T03:46:24;99989.56;;;23.10;100.00
68941;BME280;55982;51.476;7.552;2023-07-09T03:48:49;99991.78;;;23.05;100.00
68941;BME280;55982;51.476;7.552;2023-07-09T03:51:16;99988.63;;;23.00;100.00
68941;BME280;55982;51.476;7.552;2023-07-09T03:53:41;99993.72;;;23.03;100.00
68941;BME280;55982;51.476;7.552;2023-07-09T03:56:07;99997.63;;;22.99;100.00
68941;BME280;55982;51.476;7.552;2023-07-09T03:58:32;99996.97;;;22.96;100.00
68941;BME280;55982;51.476;7.552;2023-07-09T04:00:57;99991.66;;;22.96;100.00
68941;BME280;55982;51.476;7.552;2023-07-09T04:03:23;99989.13;;;22.94;100.00
68941;BME280;55982;51.476;7.552;2023-07-09T04:05:49;99990.81;;;22.95;100.00
68941;BME280;55982;51.476;7.552;2023-07-09T04:08:15;99993.50;;;22.95;100.00
68941;BME280;55982;51.476;7.552;2023-07-09T04:10:41;99991.66;;;22.96;100.00
68941;BME280;55982;51.476;7.552;2023-07-09T04:13:06;99997.84;;;22.96;100.00
68941;BME280;55982;51.476;7.552;2023-07-09T04:15:32;99991.56;;;22.97;100.00
68941;BME280;55982;51.476;7.552;2023-07-09T04:17:57;99990.34;;;23.01;100.00
68941;BME280;55982;51.476;7.552;2023-07-09T04:20:22;100001.00;;;23.01;100.00
68941;BME280;55982;51.476;7.552;2023-07-09T04:22:48;99995.91;;;22.98;100.00
68941;BME280;55982;51.476;7.552;2023-07-09T04:25:14;100002.69;;;23.02;100.00
68941;BME280;55982;51.476;7.552;2023-07-09T04:27:40;100001.59;;;23.05;100.00
68941;BME280;55982;51.476;7.552;2023-07-09T04:30:10;100004.72;;;23.10;100.00
68941;BME280;55982;51.476;7.552;2023-07-09T04:32:36;100001.69;;;23.14;100.00
68941;BME280;55982;51.476;7.552;2023-07-09T04:35:02;99999.75;;;23.16;100.00
68941;BME280;55982;51.476;7.552;2023-07-09T04:37:28;100007.72;;;23.27;100.00
68941;BME280;55982;51.476;7.552;2023-07-09T04:39:53;100009.19;;;23.31;100.00
68941;BME280;55982;51.476;7.552;2023-07-09T04:42:18;100006.75;;;23.39;100.00
68941;BME280;55982;51.476;7.552;2023-07-09T04:44:45;100011.31;;;23.48;100.00
68941;BME280;55982;51.476;7.552;2023-07-09T04:47:11;100003.50;;;23.56;100.00
68941;BME280;55982;51.476;7.552;2023-07-09T04:49:37;100006.63;;;23.61;100.00
68941;BME280;55982;51.476;7.552;2023-07-09T04:52:03;100009.53;;;23.70;100.00
68941;BME280;55982;51.476;7.552;2023-07-09T04:54:28;100009.47;;;23.81;100.00
68941;BME280;55982;51.476;7.552;2023-07-09T04:56:54;100006.25;;;23.87;100.00
68941;BME280;55982;51.476;7.552;2023-07-09T04:59:21;100007.44;;;23.94;100.00
68941;BME280;55982;51.476;7.552;2023-07-09T05:01:46;100010.34;;;24.02;100.00
68941;BME280;55982;51.476;7.552;2023-07-09T05:04:12;100010.16;;;24.14;100.00
68941;BME280;55982;51.476;7.552;2023-07-09T05:06:37;100012.41;;;24.19;100.00
68941;BME280;55982;51.476;7.552;2023-07-09T05:09:03;100009.22;;;24.25;100.00
68941;BME280;55982;51.476;7.552;2023-07-09T05:11:30;100014.47;;;24.36;100.00
68941;BME280;55982;51.476;7.552;2023-07-09T05:13:56;100013.22;;;24.40;100.00
68941;BME280;55982;51.476;7.552;2023-07-09T05:16:21;100017.78;;;24.49;100.00
68941;BME280;55982;51.476;7.552;2023-07-09T05:18:46;100020.91;;;24.54;100.00
68941;BME280;55982;51.476;7.552;2023-07-09T05:21:12;100015.97;;;24.59;100.00
68941;BME280;55982;51.476;7.552;2023-07-09T05:23:38;100017.41;;;24.63;100.00
68941;BME280;55982;51.476;7.552;2023-07-09T05:26:03;100018.34;;;24.73;100.00
68941;BME280;55982;51.476;7.552;2023-07-09T05:28:30;100024.00;;;24.80;100.00
68941;BME280;55982;51.476;7.552;2023-07-09T05:30:57;100019.22;;;24.83;100.00
68941;BME280;55982;51.476;7.552;2023-07-09T05:33:23;100012.19;;;24.92;100.00
68941;BME280;55982;51.476;7.552;2023-07-09T05:35:48;100022.91;;;25.01;100.00
68941;BME280;55982;51.476;7.552;2023-07-09T05:38:14;100024.09;;;25.08;100.00
68941;BME280;55982;51.476;7.552;2023-07-09T05:40:41;100024.13;;;25.27;100.00
68941;BME280;55982;51.476;7.552;2023-07-09T05:43:06;100023.56;;;25.33;100.00
68941;BME280;55982;51.476;7.552;2023-07-09T05:45:32;100025.28;;;25.44;100.00
68941;BME280;55982;51.476;7.552;2023-07-09T05:48:00;100024.88;;;25.58;100.00
68941;BME280;55982;51.476;7.552;2023-07-09T05:50:27;100025.03;;;25.66;100.00
68941;BME280;55982;51.476;7.552;2023-07-09T05:52:53;100032.63;;;25.71;100.00
68941;BME280;55982;51.476;7.552;2023-07-09T05:55:19;100026.69;;;25.77;100.00
68941;BME280;55982;51.476;7.552;2023-07-09T05:57:44;100021.47;;;25.85;100.00
68941;BME280;55982;51.476;7.552;2023-07-09T06:00:10;100026.97;;;25.93;100.00
68941;BME280;55982;51.476;7.552;2023-07-09T06:02:37;100028.97;;;26.10;100.00
68941;BME280;55982;51.476;7.552;2023-07-09T06:05:03;100026.97;;;26.12;100.00
68941;BME280;55982;51.476;7.552;2023-07-09T06:07:28;100032.84;;;26.35;100.00
68941;BME280;55982;51.476;7.552;2023-07-09T06:09:54;100033.41;;;26.38;100.00
68941;BME280;55982;51.476;7.552;2023-07-09T06:12:19;100024.06;;;26.42;100.00
68941;BME280;55982;51.476;7.552;2023-07-09T06:14:46;100033.13;;;26.41;100.00
68941;BME280;55982;51.476;7.552;2023-07-09T06:17:12;100028.84;;;26.48;100.00
68941;BME280;55982;51.476;7.552;2023-07-09T06:19:38;100031.94;;;26.53;100.00
68941;BME280;55982;51.476;7.552;2023-07-09T06:22:04;100034.16;;;26.67;100.00
68941;BME280;55982;51.476;7.552;2023-07-09T06:24:29;100032.47;;;26.76;100.00
68941;BME280;55982;51.476;7.552;2023-07-09T06:26:54;100034.09;;;26.86;100.00
68941;BME280;55982;51.476;7.552;2023-07-09T06:29:20;100034.84;;;27.06;100.00
68941;BME280;55982;51.476;7.552;2023-07-09T06:31:45;100034.47;;;27.18;100.00
68941;BME280;55982;51.476;7.552;2023-07-09T06:34:11;100036.56;;;27.25;100.00
68941;BME280;55982;51.476;7.552;2023-07-09T06:36:36;100031.78;;;27.46;100.00
68941;BME280;55982;51.476;7.552;2023-07-09T06:39:02;100039.00;;;27.63;100.00
68941;BME280;55982;51.476;7.552;2023-07-09T06:41:28;100032.25;;;27.94;100.00
68941;BME280;55982;51.476;7.552;2023-07-09T06:43:54;100035.88;;;28.02;100.00
68941;BME280;55982;51.476;7.552;2023-07-09T06:46:20;100040.72;;;28.25;100.00
68941;BME280;55982;51.476;7.552;2023-07-09T06:48:46;100028.81;;;28.53;100.00
68941;BME280;55982;51.476;7.552;2023-07-09T06:51:11;100041.25;;;28.79;100.00
68941;BME280;55982;51.476;7.552;2023-07-09T06:53:37;100037.34;;;28.74;100.00
68941;BME280;55982;51.476;7.552;2023-07-09T06:56:03;100040.66;;;29.02;100.00
68941;BME280;55982;51.476;7.552;2023-07-09T06:58:30;100047.13;;;29.17;100.00
68941;BME280;55982;51.476;7.552;2023-07-09T07:01:03;100044.16;;;29.36;100.00
68941;BME280;55982;51.476;7.552;2023-07-09T07:03:30;100051.84;;;29.15;99.83
68941;BME280;55982;51.476;7.552;2023-07-09T07:05:55;100042.81;;;29.40;99.04
68941;BME280;55982;51.476;7.552;2023-07-09T07:08:24;100047.91;;;29.51;100.00
68941;BME280;55982;51.476;7.552;2023-07-09T07:10:53;100046.94;;;29.76;97.97
68941;BME280;55982;51.476;7.552;2023-07-09T07:13:26;100043.56;;;30.22;96.12
68941;BME280;55982;51.476;7.552;2023-07-09T07:15:52;100034.44;;;30.55;98.15
68941;BME280;55982;51.476;7.552;2023-07-09T07:18:17;100045.81;;;30.82;93.25
68941;BME280;55982;51.476;7.552;2023-07-09T07:20:43;100041.09;;;30.92;90.59
68941;BME280;55982;51.476;7.552;2023-07-09T07:23:08;100037.50;;;31.38;86.71
68941;BME280;55982;51.476;7.552;2023-07-09T07:25:33;100034.81;;;31.30;85.53
68941;BME280;55982;51.476;7.552;2023-07-09T07:27:59;100034.47;;;31.33;82.69
68941;BME280;55982;51.476;7.552;2023-07-09T07:30:24;100042.50;;;31.49;86.22
68941;BME280;55982;51.476;7.552;2023-07-09T07:32:50;100036.69;;;31.60;81.97
68941;BME280;55982;51.476;7.552;2023-07-09T07:35:15;100046.78;;;31.66;81.85
68941;BME280;55982;51.476;7.552;2023-07-09T07:37:41;100042.88;;;32.14;82.45
68941;BME280;55982;51.476;7.552;2023-07-09T07:40:07;100042.78;;;32.22;84.15
68941;BME280;55982;51.476;7.552;2023-07-09T07:42:33;100042.59;;;32.61;80.66
68941;BME280;55982;51.476;7.552;2023-07-09T07:44:59;100040.06;;;32.45;78.43
68941;BME280;55982;51.476;7.552;2023-07-09T07:47:24;100048.75;;;33.13;78.69
68941;BME280;55982;51.476;7.552;2023-07-09T07:49:52;100049.06;;;33.39;80.01
68941;BME280;55982;51.476;7.552;2023-07-09T07:52:17;100045.91;;;33.50;74.54
68941;BME280;55982;51.476;7.552;2023-07-09T07:54:42;100045.19;;;33.27;77.98
68941;BME280;55982;51.476;7.552;2023-07-09T07:57:08;100045.97;;;33.57;74.75
68941;BME280;55982;51.476;7.552;2023-07-09T07:59:35;100056.25;;;33.82;76.28
68941;BME280;55982;51.476;7.552;2023-07-09T08:02:01;100050.59;;;33.98;72.08
68941;BME280;55982;51.476;7.552;2023-07-09T08:04:27;100048.34;;;33.87;74.49
68941;BME280;55982;51.476;7.552;2023-07-09T08:06:52;100047.44;;;34.23;78.74
68941;BME280;55982;51.476;7.552;2023-07-09T08:09:18;100043.50;;;34.53;73.41
68941;BME280;55982;51.476;7.552;2023-07-09T08:11:44;100044.63;;;34.99;68.76
68941;BME280;55982;51.476;7.552;2023-07-09T08:14:11;100047.81;;;35.50;68.92
68941;BME280;55982;51.476;7.552;2023-07-09T08:16:37;100049.06;;;35.60;67.11
68941;BME280;55982;51.476;7.552;2023-07-09T08:19:02;100040.78;;;36.21;66.11
68941;BME280;55982;51.476;7.552;2023-07-09T08:21:28;100042.00;;;36.77;68.38
68941;BME280;55982;51.476;7.552;2023-07-09T08:23:53;100035.75;;;36.05;64.53
68941;BME280;55982;51.476;7.552;2023-07-09T08:26:18;100033.66;;;36.13;64.51
68941;BME280;55982;51.476;7.552;2023-07-09T08:28:44;100036.75;;;35.11;69.10
68941;BME280;55982;51.476;7.552;2023-07-09T08:31:09;100034.91;;;36.24;65.84
68941;BME280;55982;51.476;7.552;2023-07-09T08:33:35;100039.50;;;36.30;62.04
68941;BME280;55982;51.476;7.552;2023-07-09T08:36:01;100039.44;;;36.95;62.36
68941;BME280;55982;51.476;7.552;2023-07-09T08:38:26;100038.44;;;37.27;59.41
68941;BME280;55982;51.476;7.552;2023-07-09T08:40:57;100035.56;;;37.16;64.18
68941;BME280;55982;51.476;7.552;2023-07-09T08:48:44;100021.38;;;37.83;59.25
68941;BME280;55982;51.476;7.552;2023-07-09T08:53:51;100023.66;;;38.60;50.75
68941;BME280;55982;51.476;7.552;2023-07-09T08:56:22;100022.50;;;38.00;55.35
68941;BME280;55982;51.476;7.552;2023-07-09T08:58:49;100022.84;;;37.47;52.18
68941;BME280;55982;51.476;7.552;2023-07-09T09:01:22;100019.28;;;36.96;54.83
68941;BME280;55982;51.476;7.552;2023-07-09T09:03:53;100027.31;;;38.29;50.68
68941;BME280;55982;51.476;7.552;2023-07-09T09:06:25;100026.81;;;38.38;53.79
68941;BME280;55982;51.476;7.552;2023-07-09T09:14:34;100021.09;;;37.59;54.95
68941;BME280;55982;51.476;7.552;2023-07-09T09:17:03;100025.50;;;37.92;53.21
68941;BME280;55982;51.476;7.552;2023-07-09T09:22:10;100021.09;;;38.83;48.07
68941;BME280;55982;51.476;7.552;2023-07-09T09:27:35;100008.75;;;37.82;46.63
68941;BME280;55982;51.476;7.552;2023-07-09T09:30:00;100015.84;;;37.89;45.79
68941;BME280;55982;51.476;7.552;2023-07-09T09:32:30;100014.22;;;37.82;48.80
68941;BME280;55982;51.476;7.552;2023-07-09T09:34:56;100008.09;;;37.55;45.95
68941;BME280;55982;51.476;7.552;2023-07-09T09:37:30;100009.53;;;39.17;44.17
68941;BME280;55982;51.476;7.552;2023-07-09T09:39:58;100009.75;;;38.97;46.74
68941;BME280;55982;51.476;7.552;2023-07-09T09:42:25;100005.63;;;39.24;44.29
68941;BME280;55982;51.476;7.552;2023-07-09T09:44:53;100011.28;;;39.11;45.87
68941;BME280;55982;51.476;7.552;2023-07-09T09:47:18;100014.47;;;38.90;45.48
68941;BME280;55982;51.476;7.552;2023-07-09T09:49:43;100003.38;;;40.15;41.73
68941;BME280;55982;51.476;7.552;2023-07-09T09:52:18;100005.44;;;40.20;41.39
68941;BME280;55982;51.476;7.552;2023-07-09T09:54:50;100013.91;;;40.07;42.74
68941;BME280;55982;51.476;7.552;2023-07-09T09:57:19;100007.13;;;40.44;47.22
68941;BME280;55982;51.476;7.552;2023-07-09T09:59:46;100012.34;;;40.34;43.27
68941;BME280;55982;51.476;7.552;2023-07-09T10:02:23;100015.09;;;40.92;43.46
68941;BME280;55982;51.476;7.552;2023-07-09T10:04:49;100015.72;;;40.59;42.57
68941;BME280;55982;51.476;7.552;2023-07-09T10:07:23;100007.84;;;41.14;43.25
68941;BME280;55982;51.476;7.552;2023-07-09T10:09:54;100009.41;;;39.83;43.11
68941;BME280;55982;51.476;7.552;2023-07-09T10:12:40;100013.06;;;39.65;48.98
68941;BME280;55982;51.476;7.552;2023-07-09T10:15:31;100005.34;;;39.14;46.74
68941;BME280;55982;51.476;7.552;2023-07-09T10:18:11;99998.03;;;39.26;44.94
68941;BME280;55982;51.476;7.552;2023-07-09T10:20:51;99992.81;;;40.07;44.07
68941;BME280;55982;51.476;7.552;2023-07-09T10:23:28;100000.94;;;40.37;42.01
68941;BME280;55982;51.476;7.552;2023-07-09T10:26:23;100006.94;;;41.37;39.89
68941;BME280;55982;51.476;7.552;2023-07-09T10:29:03;100007.81;;;41.26;38.89
68941;BME280;55982;51.476;7.552;2023-07-09T10:32:01;99996.47;;;40.94;39.72
68941;BME280;55982;51.476;7.552;2023-07-09T10:34:48;99996.09;;;40.67;44.38
68941;BME280;55982;51.476;7.552;2023-07-09T10:40:15;99977.06;;;40.49;39.93
68941;BME280;55982;51.476;7.552;2023-07-09T10:42:50;99988.88;;;40.61;41.81
68941;BME280;55982;51.476;7.552;2023-07-09T10:45:30;99985.09;;;40.90;39.96
68941;BME280;55982;51.476;7.552;2023-07-09T10:48:18;99977.03;;;41.12;40.60
68941;BME280;55982;51.476;7.552;2023-07-09T10:50:52;99977.13;;;40.89;41.23
68941;BME280;55982;51.476;7.552;2023-07-09T10:53:41;99975.03;;;41.08;40.12
68941;BME280;55982;51.476;7.552;2023-07-09T10:56:14;99966.81;;;41.08;40.37
68941;BME280;55982;51.476;7.552;2023-07-09T10:59:49;99969.25;;;39.65;43.66
68941;BME280;55982;51.476;7.552;2023-07-09T11:01:52;99960.91;;;39.30;41.70
68941;BME280;55982;51.476;7.552;2023-07-09T11:04:35;99969.00;;;39.07;43.33
68941;BME280;55982;51.476;7.552;2023-07-09T11:07:06;99967.38;;;40.00;44.77
68941;BME280;55982;51.476;7.552;2023-07-09T11:09:35;99966.72;;;40.40;41.18
68941;BME280;55982;51.476;7.552;2023-07-09T11:12:06;99962.34;;;38.67;42.95
68941;BME280;55982;51.476;7.552;2023-07-09T11:14:39;99960.06;;;40.75;44.24
68941;BME280;55982;51.476;7.552;2023-07-09T11:17:15;99959.75;;;39.50;41.44
68941;BME280;55982;51.476;7.552;2023-07-09T11:19:45;99967.06;;;41.96;37.84
68941;BME280;55982;51.476;7.552;2023-07-09T11:22:20;99958.59;;;43.17;37.44
68941;BME280;55982;51.476;7.552;2023-07-09T11:24:47;99951.72;;;40.70;42.27
68941;BME280;55982;51.476;7.552;2023-07-09T11:29:49;99963.31;;;40.84;39.76
68941;BME280;55982;51.476;7.552;2023-07-09T11:32:22;99955.56;;;41.09;43.00
68941;BME280;55982;51.476;7.552;2023-07-09T11:34:47;99955.91;;;42.40;36.69
68941;BME280;55982;51.476;7.552;2023-07-09T11:37:14;99953.91;;;42.14;37.05
68941;BME280;55982;51.476;7.552;2023-07-09T11:42:34;99941.31;;;42.56;35.06
68941;BME280;55982;51.476;7.552;2023-07-09T11:45:14;99927.22;;;42.74;36.06
68941;BME280;55982;51.476;7.552;2023-07-09T11:47:46;99929.34;;;42.29;36.58
68941;BME280;55982;51.476;7.552;2023-07-09T11:50:27;99922.75;;;40.63;38.15
68941;BME280;55982;51.476;7.552;2023-07-09T11:52:56;99920.59;;;40.65;35.71
68941;BME280;55982;51.476;7.552;2023-07-09T11:57:59;99909.81;;;41.15;36.41
68941;BME280;55982;51.476;7.552;2023-07-09T12:00:27;99909.91;;;41.81;35.44
68941;BME280;55982;51.476;7.552;2023-07-09T12:02:55;99914.13;;;41.55;35.55
68941;BME280;55982;51.476;7.552;2023-07-09T12:05:26;99903.25;;;43.50;36.07
68941;BME280;55982;51.476;7.552;2023-07-09T12:07:54;99907.13;;;43.49;33.13
68941;BME280;55982;51.476;7.552;2023-07-09T12:10:23;99896.28;;;42.24;32.43
68941;BME280;55982;51.476;7.552;2023-07-09T12:12:54;99898.13;;;42.40;35.99
68941;BME280;55982;51.476;7.552;2023-07-09T12:15:25;99896.38;;;42.13;33.61
68941;BME280;55982;51.476;7.552;2023-07-09T12:18:10;99889.19;;;42.28;33.79
68941;BME280;55982;51.476;7.552;2023-07-09T12:20:36;99891.06;;;42.44;35.21
68941;BME280;55982;51.476;7.552;2023-07-09T12:23:30;99891.81;;;43.36;33.44
68941;BME280;55982;51.476;7.552;2023-07-09T12:25:59;99893.19;;;43.61;31.19
68941;BME280;55982;51.476;7.552;2023-07-09T12:28:27;99889.53;;;42.53;32.60
68941;BME280;55982;51.476;7.552;2023-07-09T12:30:53;99893.25;;;43.12;31.61
68941;BME280;55982;51.476;7.552;2023-07-09T12:33:21;99885.28;;;43.16;32.36
68941;BME280;55982;51.476;7.552;2023-07-09T12:35:47;99887.28;;;43.20;30.83
68941;BME280;55982;51.476;7.552;2023-07-09T12:38:22;99876.75;;;42.91;33.46
68941;BME280;55982;51.476;7.552;2023-07-09T12:40:50;99874.38;;;43.94;31.46
68941;BME280;55982;51.476;7.552;2023-07-09T12:43:21;99876.56;;;43.24;33.22
68941;BME280;55982;51.476;7.552;2023-07-09T12:45:48;99873.22;;;42.47;32.31
68941;BME280;55982;51.476;7.552;2023-07-09T12:48:16;99879.50;;;42.26;32.00
68941;BME280;55982;51.476;7.552;2023-07-09T12:50:49;99875.53;;;42.00;31.59
68941;BME280;55982;51.476;7.552;2023-07-09T12:53:17;99872.06;;;41.55;31.96
68941;BME280;55982;51.476;7.552;2023-07-09T12:55:45;99865.16;;;41.36;33.11
68941;BME280;55982;51.476;7.552;2023-07-09T12:58:26;99861.47;;;40.85;34.55
68941;BME280;55982;51.476;7.552;2023-07-09T13:00:54;99861.56;;;41.19;35.46
68941;BME280;55982;51.476;7.552;2023-07-09T13:03:25;99858.34;;;40.93;33.64
68941;BME280;55982;51.476;7.552;2023-07-09T13:08:27;99850.81;;;40.61;35.74
68941;BME280;55982;51.476;7.552;2023-07-09T13:10:56;99841.94;;;40.70;35.62
68941;BME280;55982;51.476;7.552;2023-07-09T13:13:23;99850.56;;;40.62;34.56
68941;BME280;55982;51.476;7.552;2023-07-09T13:15:56;99845.84;;;40.46;36.96
68941;BME280;55982;51.476;7.552;2023-07-09T13:18:24;99848.31;;;40.08;36.70
68941;BME280;55982;51.476;7.552;2023-07-09T13:20:51;99846.59;;;39.38;37.34
68941;BME280;55982;51.476;7.552;2023-07-09T13:23:23;99857.50;;;39.67;36.23
68941;BME280;55982;51.476;7.552;2023-07-09T13:25:49;99858.31;;;39.68;35.59
68941;BME280;55982;51.476;7.552;2023-07-09T13:28:26;99840.69;;;39.64;36.49